sensor_id;sensor_type;location;lat;lon;timestamp;temperature;humidity
21459;DHT22;10891;49.350;19.386;2023-03-30T00:02:18;2.10;99.90
21459;DHT22;10891;49.350;19.386;2023-03-30T00:04:47;2.00;99.90
21459;DHT22;10891;49.350;19.386;2023-03-30T00:07:14;2.00;99.90
21459;DHT22;10891;49.350;19.386;2023-03-30T00:09:41;2.00;99.90
21459;DHT22;10891;49.350;19.386;2023-03-30T00:12:08;2.00;99.90
21459;DHT22;10891;49.350;19.386;2023-03-30T00:14:36;2.00;99.90
21459;DHT22;10891;49.350;19.386;2023-03-30T00:17:03;2.10;99.90
21459;DHT22;10891;49.350;19.386;2023-03-30T00:19:30;2.10;99.90
21459;DHT22;10891;49.350;19.386;2023-03-30T00:21:57;2.10;99.90
21459;DHT22;10891;49.350;19.386;2023-03-30T00:24:24;2.10;99.90
21459;DHT22;10891;49.350;19.386;2023-03-30T00:26:51;2.10;99.90
21459;DHT22;10891;49.350;19.386;2023-03-30T00:29:17;2.10;99.90
21459;DHT22;10891;49.350;19.386;2023-03-30T00:31:46;2.00;99.90
21459;DHT22;10891;49.350;19.386;2023-03-30T00:34:12;1.90;99.90
21459;DHT22;10891;49.350;19.386;2023-03-30T00:36:39;1.90;99.90
21459;DHT22;10891;49.350;19.386;2023-03-30T00:39:07;1.80;99.90
21459;DHT22;10891;49.350;19.386;2023-03-30T00:41:34;1.80;99.90
21459;DHT22;10891;49.350;19.386;2023-03-30T00:44:03;1.70;99.90
21459;DHT22;10891;49.350;19.386;2023-03-30T00:46:31;1.70;99.90
21459;DHT22;10891;49.350;19.386;2023-03-30T00:49:02;1.60;99.90
21459;DHT22;10891;49.350;19.386;2023-03-30T00:51:31;1.60;99.90
21459;DHT22;10891;49.350;19.386;2023-03-30T00:54:04;1.60;99.90
21459;DHT22;10891;49.350;19.386;2023-03-30T00:56:32;1.60;99.90
21459;DHT22;10891;49.350;19.386;2023-03-30T00:59:01;1.60;99.90
21459;DHT22;10891;49.350;19.386;2023-03-30T01:01:28;1.60;99.90
21459;DHT22;10891;49.350;19.386;2023-03-30T01:04:06;1.60;99.90
21459;DHT22;10891;49.350;19.386;2023-03-30T01:06:35;1.50;99.90
21459;DHT22;10891;49.350;19.386;2023-03-30T01:09:04;1.50;99.90
21459;DHT22;10891;49.350;19.386;2023-03-30T01:11:32;1.50;99.90
21459;DHT22;10891;49.350;19.386;2023-03-30T01:14:02;1.40;99.90
21459;DHT22;10891;49.350;19.386;2023-03-30T01:16:38;1.50;99.90
21459;DHT22;10891;49.350;19.386;2023-03-30T01:19:26;1.50;99.90
21459;DHT22;10891;49.350;19.386;2023-03-30T01:22:10;1.40;99.90
21459;DHT22;10891;49.350;19.386;2023-03-30T01:31:03;1.20;99.90
21459;DHT22;10891;49.350;19.386;2023-03-30T01:34:00;1.10;99.90
21459;DHT22;10891;49.350;19.386;2023-03-30T01:36:52;0.90;99.90
21459;DHT22;10891;49.350;19.386;2023-03-30T01:39:34;0.80;99.90
21459;DHT22;10891;49.350;19.386;2023-03-30T01:42:10;0.70;99.90
21459;DHT22;10891;49.350;19.386;2023-03-30T01:44:42;0.60;99.90
21459;DHT22;10891;49.350;19.386;2023-03-30T01:47:18;0.50;99.90
21459;DHT22;10891;49.350;19.386;2023-03-30T01:49:50;0.50;99.90
21459;DHT22;10891;49.350;19.386;2023-03-30T01:52:25;0.50;99.90
21459;DHT22;10891;49.350;19.386;2023-03-30T01:54:57;0.40;99.90
21459;DHT22;10891;49.350;19.386;2023-03-30T01:57:30;0.40;99.90
21459;DHT22;10891;49.350;19.386;2023-03-30T02:00:03;0.40;99.90
21459;DHT22;10891;49.350;19.386;2023-03-30T02:02:39;0.40;99.90
21459;DHT22;10891;49.350;19.386;2023-03-30T02:05:08;0.30;99.90
21459;DHT22;10891;49.350;19.386;2023-03-30T02:07:37;0.40;99.90
21459;DHT22;10891;49.350;19.386;2023-03-30T02:10:08;0.40;99.90
21459;DHT22;10891;49.350;19.386;2023-03-30T02:12:37;0.40;99.90
21459;DHT22;10891;49.350;19.386;2023-03-30T02:15:07;0.40;99.90
21459;DHT22;10891;49.350;19.386;2023-03-30T02:17:35;0.40;99.90
21459;DHT22;10891;49.350;19.386;2023-03-30T02:20:04;0.40;99.90
21459;DHT22;10891;49.350;19.386;2023-03-30T02:22:33;0.40;99.90
21459;DHT22;10891;49.350;19.386;2023-03-30T02:25:00;0.40;99.90
21459;DHT22;10891;49.350;19.386;2023-03-30T02:27:28;0.50;99.90
21459;DHT22;10891;49.350;19.386;2023-03-30T02:29:56;0.50;99.90
21459;DHT22;10891;49.350;19.386;2023-03-30T02:32:25;0.60;99.90
21459;DHT22;10891;49.350;19.386;2023-03-30T02:35:08;0.60;99.90
21459;DHT22;10891;49.350;19.386;2023-03-30T02:38:00;0.60;99.90
21459;DHT22;10891;49.350;19.386;2023-03-30T02:40:35;0.60;99.90
21459;DHT22;10891;49.350;19.386;2023-03-30T02:43:20;0.50;99.90
21459;DHT22;10891;49.350;19.386;2023-03-30T02:45:52;0.40;99.90
21459;DHT22;10891;49.350;19.386;2023-03-30T02:48:32;0.40;99.90
21459;DHT22;10891;49.350;19.386;2023-03-30T02:51:12;0.30;99.90
21459;DHT22;10891;49.350;19.386;2023-03-30T02:53:45;0.30;99.90
21459;DHT22;10891;49.350;19.386;2023-03-30T02:56:20;0.30;99.90
21459;DHT22;10891;49.350;19.386;2023-03-30T02:58:53;0.30;99.90
21459;DHT22;10891;49.350;19.386;2023-03-30T03:01:25;0.30;99.90
21459;DHT22;10891;49.350;19.386;2023-03-30T03:03:57;0.30;99.90
21459;DHT22;10891;49.350;19.386;2023-03-30T03:06:25;0.30;99.90
21459;DHT22;10891;49.350;19.386;2023-03-30T03:08:53;0.40;99.90
21459;DHT22;10891;49.350;19.386;2023-03-30T03:11:21;0.40;99.90
21459;DHT22;10891;49.350;19.386;2023-03-30T03:13:49;0.50;99.90
21459;DHT22;10891;49.350;19.386;2023-03-30T03:16:17;0.60;99.90
21459;DHT22;10891;49.350;19.386;2023-03-30T03:18:44;0.60;99.90
21459;DHT22;10891;49.350;19.386;2023-03-30T03:21:12;0.70;99.90
21459;DHT22;10891;49.350;19.386;2023-03-30T03:23:39;0.70;99.90
21459;DHT22;10891;49.350;19.386;2023-03-30T03:26:07;0.70;99.90
21459;DHT22;10891;49.350;19.386;2023-03-30T03:28:34;0.80;99.90
21459;DHT22;10891;49.350;19.386;2023-03-30T03:31:03;0.80;99.90
21459;DHT22;10891;49.350;19.386;2023-03-30T03:33:31;0.70;99.90
21459;DHT22;10891;49.350;19.386;2023-03-30T03:35:58;0.80;99.90
21459;DHT22;10891;49.350;19.386;2023-03-30T03:38:26;0.80;99.90
21459;DHT22;10891;49.350;19.386;2023-03-30T03:40:54;0.90;99.90
21459;DHT22;10891;49.350;19.386;2023-03-30T03:43:22;0.90;99.90
21459;DHT22;10891;49.350;19.386;2023-03-30T03:45:49;1.00;99.90
21459;DHT22;10891;49.350;19.386;2023-03-30T03:48:19;1.00;99.90
21459;DHT22;10891;49.350;19.386;2023-03-30T03:50:49;1.10;99.90
21459;DHT22;10891;49.350;19.386;2023-03-30T03:53:16;1.20;99.90
21459;DHT22;10891;49.350;19.386;2023-03-30T03:55:43;1.30;99.90
21459;DHT22;10891;49.350;19.386;2023-03-30T03:58:10;1.40;99.90
21459;DHT22;10891;49.350;19.386;2023-03-30T04:00:37;1.50;99.90
21459;DHT22;10891;49.350;19.386;2023-03-30T04:03:04;1.60;99.90
21459;DHT22;10891;49.350;19.386;2023-03-30T04:05:33;1.60;99.90
21459;DHT22;10891;49.350;19.386;2023-03-30T04:08:00;1.70;99.90
21459;DHT22;10891;49.350;19.386;2023-03-30T04:10:27;1.70;99.90
21459;DHT22;10891;49.350;19.386;2023-03-30T04:12:54;1.70;99.90
21459;DHT22;10891;49.350;19.386;2023-03-30T04:15:22;1.80;99.90
21459;DHT22;10891;49.350;19.386;2023-03-30T04:17:49;1.80;99.90
21459;DHT22;10891;49.350;19.386;2023-03-30T04:20:22;1.80;99.90
21459;DHT22;10891;49.350;19.386;2023-03-30T04:22:52;1.90;99.90
21459;DHT22;10891;49.350;19.386;2023-03-30T04:25:19;1.90;99.90
21459;DHT22;10891;49.350;19.386;2023-03-30T04:27:47;1.90;99.90
21459;DHT22;10891;49.350;19.386;2023-03-30T04:30:16;2.00;99.90
21459;DHT22;10891;49.350;19.386;2023-03-30T04:32:43;2.00;99.90
21459;DHT22;10891;49.350;19.386;2023-03-30T04:35:12;2.10;99.90
21459;DHT22;10891;49.350;19.386;2023-03-30T04:37:41;2.10;99.90
21459;DHT22;10891;49.350;19.386;2023-03-30T04:40:10;2.10;99.90
21459;DHT22;10891;49.350;19.386;2023-03-30T04:42:37;2.10;99.90
21459;DHT22;10891;49.350;19.386;2023-03-30T04:45:06;2.10;99.90
21459;DHT22;10891;49.350;19.386;2023-03-30T04:47:33;2.10;99.90
21459;DHT22;10891;49.350;19.386;2023-03-30T04:50:00;2.20;99.90
21459;DHT22;10891;49.350;19.386;2023-03-30T04:52:28;2.20;99.90
21459;DHT22;10891;49.350;19.386;2023-03-30T04:54:55;2.20;99.90
21459;DHT22;10891;49.350;19.386;2023-03-30T04:57:23;2.20;99.90
21459;DHT22;10891;49.350;19.386;2023-03-30T04:59:50;2.30;99.90
21459;DHT22;10891;49.350;19.386;2023-03-30T05:02:17;2.40;99.90
21459;DHT22;10891;49.350;19.386;2023-03-30T05:04:44;2.40;99.90
21459;DHT22;10891;49.350;19.386;2023-03-30T05:07:11;2.50;99.90
21459;DHT22;10891;49.350;19.386;2023-03-30T05:09:39;2.50;99.90
21459;DHT22;10891;49.350;19.386;2023-03-30T05:12:06;2.50;99.90
21459;DHT22;10891;49.350;19.386;2023-03-30T05:14:37;2.60;99.90
21459;DHT22;10891;49.350;19.386;2023-03-30T05:17:05;2.60;99.90
21459;DHT22;10891;49.350;19.386;2023-03-30T05:19:32;2.50;99.90
21459;DHT22;10891;49.350;19.386;2023-03-30T05:22:00;2.60;99.90
21459;DHT22;10891;49.350;19.386;2023-03-30T05:24:27;2.70;99.90
21459;DHT22;10891;49.350;19.386;2023-03-30T05:26:53;2.80;99.90
21459;DHT22;10891;49.350;19.386;2023-03-30T05:29:21;2.80;99.90
21459;DHT22;10891;49.350;19.386;2023-03-30T05:31:49;3.00;99.90
21459;DHT22;10891;49.350;19.386;2023-03-30T05:34:17;3.10;99.90
21459;DHT22;10891;49.350;19.386;2023-03-30T05:36:44;3.20;99.90
21459;DHT22;10891;49.350;19.386;2023-03-30T05:39:11;3.40;99.90
21459;DHT22;10891;49.350;19.386;2023-03-30T05:41:37;3.60;99.90
21459;DHT22;10891;49.350;19.386;2023-03-30T05:44:05;3.70;99.90
21459;DHT22;10891;49.350;19.386;2023-03-30T05:46:32;3.90;99.90
21459;DHT22;10891;49.350;19.386;2023-03-30T05:49:01;3.90;99.90
21459;DHT22;10891;49.350;19.386;2023-03-30T05:51:28;4.10;99.90
21459;DHT22;10891;49.350;19.386;2023-03-30T05:53:55;4.20;99.90
21459;DHT22;10891;49.350;19.386;2023-03-30T05:56:22;4.50;99.90
21459;DHT22;10891;49.350;19.386;2023-03-30T05:58:49;4.50;99.90
21459;DHT22;10891;49.350;19.386;2023-03-30T06:01:16;4.30;99.90
21459;DHT22;10891;49.350;19.386;2023-03-30T06:03:45;4.10;99.90
21459;DHT22;10891;49.350;19.386;2023-03-30T06:06:13;4.10;99.90
21459;DHT22;10891;49.350;19.386;2023-03-30T06:08:41;4.10;99.90
21459;DHT22;10891;49.350;19.386;2023-03-30T06:11:07;4.10;99.90
21459;DHT22;10891;49.350;19.386;2023-03-30T06:13:35;4.10;99.90
21459;DHT22;10891;49.350;19.386;2023-03-30T06:16:03;4.10;99.90
21459;DHT22;10891;49.350;19.386;2023-03-30T06:18:30;4.10;99.90
21459;DHT22;10891;49.350;19.386;2023-03-30T06:20:57;4.20;99.90
21459;DHT22;10891;49.350;19.386;2023-03-30T06:23:28;4.20;99.90
21459;DHT22;10891;49.350;19.386;2023-03-30T06:25:55;4.30;99.90
21459;DHT22;10891;49.350;19.386;2023-03-30T06:28:22;4.30;99.90
21459;DHT22;10891;49.350;19.386;2023-03-30T06:30:49;4.50;99.90
21459;DHT22;10891;49.350;19.386;2023-03-30T06:33:16;4.60;99.90
21459;DHT22;10891;49.350;19.386;2023-03-30T06:35:47;4.60;99.90
21459;DHT22;10891;49.350;19.386;2023-03-30T06:38:14;4.80;99.90
21459;DHT22;10891;49.350;19.386;2023-03-30T06:40:43;4.90;99.90
21459;DHT22;10891;49.350;19.386;2023-03-30T06:43:15;5.00;99.90
21459;DHT22;10891;49.350;19.386;2023-03-30T06:45:42;5.00;99.90
21459;DHT22;10891;49.350;19.386;2023-03-30T06:48:09;5.10;99.90
21459;DHT22;10891;49.350;19.386;2023-03-30T06:50:36;5.10;99.90
21459;DHT22;10891;49.350;19.386;2023-03-30T06:53:05;5.00;99.90
21459;DHT22;10891;49.350;19.386;2023-03-30T06:55:32;5.00;99.90
21459;DHT22;10891;49.350;19.386;2023-03-30T06:58:00;5.10;99.90
21459;DHT22;10891;49.350;19.386;2023-03-30T07:00:27;5.20;99.90
21459;DHT22;10891;49.350;19.386;2023-03-30T07:02:54;5.40;99.90
21459;DHT22;10891;49.350;19.386;2023-03-30T07:05:22;5.70;99.90
21459;DHT22;10891;49.350;19.386;2023-03-30T07:07:50;5.80;99.90
21459;DHT22;10891;49.350;19.386;2023-03-30T07:10:18;5.90;99.90
21459;DHT22;10891;49.350;19.386;2023-03-30T07:12:45;6.10;99.90
21459;DHT22;10891;49.350;19.386;2023-03-30T07:15:14;6.10;99.90
21459;DHT22;10891;49.350;19.386;2023-03-30T07:17:41;6.20;99.90
21459;DHT22;10891;49.350;19.386;2023-03-30T07:20:09;6.20;99.90
21459;DHT22;10891;49.350;19.386;2023-03-30T07:22:39;6.20;99.90
21459;DHT22;10891;49.350;19.386;2023-03-30T07:25:07;6.40;99.90
21459;DHT22;10891;49.350;19.386;2023-03-30T07:27:35;6.40;99.90
21459;DHT22;10891;49.350;19.386;2023-03-30T07:30:03;6.80;99.90
21459;DHT22;10891;49.350;19.386;2023-03-30T07:32:32;6.90;99.90
21459;DHT22;10891;49.350;19.386;2023-03-30T07:34:59;6.80;99.90
21459;DHT22;10891;49.350;19.386;2023-03-30T07:37:26;6.80;99.90
21459;DHT22;10891;49.350;19.386;2023-03-30T07:39:54;6.80;99.90
21459;DHT22;10891;49.350;19.386;2023-03-30T07:42:21;6.90;99.90
21459;DHT22;10891;49.350;19.386;2023-03-30T07:44:48;7.00;99.90
21459;DHT22;10891;49.350;19.386;2023-03-30T07:47:15;6.60;99.90
21459;DHT22;10891;49.350;19.386;2023-03-30T07:49:43;6.70;99.90
21459;DHT22;10891;49.350;19.386;2023-03-30T07:52:10;6.70;99.90
21459;DHT22;10891;49.350;19.386;2023-03-30T07:54:38;6.70;99.90
21459;DHT22;10891;49.350;19.386;2023-03-30T07:57:05;7.00;99.90
21459;DHT22;10891;49.350;19.386;2023-03-30T07:59:32;7.30;99.90
21459;DHT22;10891;49.350;19.386;2023-03-30T08:01:59;7.40;99.90
21459;DHT22;10891;49.350;19.386;2023-03-30T08:04:26;7.40;99.90
21459;DHT22;10891;49.350;19.386;2023-03-30T08:06:54;7.20;99.90
21459;DHT22;10891;49.350;19.386;2023-03-30T08:09:22;7.30;99.90
21459;DHT22;10891;49.350;19.386;2023-03-30T08:11:49;7.20;99.90
21459;DHT22;10891;49.350;19.386;2023-03-30T08:14:16;7.10;99.90
21459;DHT22;10891;49.350;19.386;2023-03-30T08:16:44;7.20;99.90
21459;DHT22;10891;49.350;19.386;2023-03-30T08:19:11;7.30;99.90
21459;DHT22;10891;49.350;19.386;2023-03-30T08:21:40;7.30;99.90
21459;DHT22;10891;49.350;19.386;2023-03-30T08:24:09;7.40;99.90
21459;DHT22;10891;49.350;19.386;2023-03-30T08:26:39;7.60;99.90
21459;DHT22;10891;49.350;19.386;2023-03-30T08:29:06;7.70;99.90
21459;DHT22;10891;49.350;19.386;2023-03-30T08:31:33;7.90;99.90
21459;DHT22;10891;49.350;19.386;2023-03-30T08:34:02;8.00;99.90
21459;DHT22;10891;49.350;19.386;2023-03-30T08:36:30;8.00;99.90
21459;DHT22;10891;49.350;19.386;2023-03-30T08:38:57;8.40;99.90
21459;DHT22;10891;49.350;19.386;2023-03-30T08:41:50;8.40;99.90
21459;DHT22;10891;49.350;19.386;2023-03-30T08:44:27;8.30;99.90
21459;DHT22;10891;49.350;19.386;2023-03-30T08:46:57;8.10;99.90
21459;DHT22;10891;49.350;19.386;2023-03-30T08:49:26;8.30;99.90
21459;DHT22;10891;49.350;19.386;2023-03-30T08:51:54;8.70;99.90
21459;DHT22;10891;49.350;19.386;2023-03-30T08:54:22;9.00;99.90
21459;DHT22;10891;49.350;19.386;2023-03-30T08:56:59;9.20;99.90
21459;DHT22;10891;49.350;19.386;2023-03-30T08:59:35;9.60;99.90
21459;DHT22;10891;49.350;19.386;2023-03-30T09:02:13;9.70;99.90
21459;DHT22;10891;49.350;19.386;2023-03-30T09:04:52;9.90;99.90
21459;DHT22;10891;49.350;19.386;2023-03-30T09:07:24;9.70;99.90
21459;DHT22;10891;49.350;19.386;2023-03-30T09:09:53;9.30;99.90
21459;DHT22;10891;49.350;19.386;2023-03-30T09:12:28;8.90;99.90
21459;DHT22;10891;49.350;19.386;2023-03-30T09:15:02;8.50;99.90
21459;DHT22;10891;49.350;19.386;2023-03-30T09:17:36;8.30;99.90
21459;DHT22;10891;49.350;19.386;2023-03-30T09:20:07;8.00;99.90
21459;DHT22;10891;49.350;19.386;2023-03-30T09:22:40;7.90;99.90
21459;DHT22;10891;49.350;19.386;2023-03-30T09:25:15;8.10;99.90
21459;DHT22;10891;49.350;19.386;2023-03-30T09:27:53;8.20;99.90
21459;DHT22;10891;49.350;19.386;2023-03-30T09:30:25;8.40;99.90
21459;DHT22;10891;49.350;19.386;2023-03-30T09:32:59;8.50;99.90
21459;DHT22;10891;49.350;19.386;2023-03-30T09:35:33;9.00;99.90
21459;DHT22;10891;49.350;19.386;2023-03-30T09:38:02;9.20;99.90
21459;DHT22;10891;49.350;19.386;2023-03-30T09:43:33;9.70;99.90
21459;DHT22;10891;49.350;19.386;2023-03-30T09:46:01;9.80;99.90
21459;DHT22;10891;49.350;19.386;2023-03-30T09:48:37;9.80;99.90
21459;DHT22;10891;49.350;19.386;2023-03-30T09:51:14;9.60;99.90
21459;DHT22;10891;49.350;19.386;2023-03-30T09:53:43;9.70;99.90
21459;DHT22;10891;49.350;19.386;2023-03-30T09:56:23;9.60;99.90
21459;DHT22;10891;49.350;19.386;2023-03-30T09:58:53;9.50;99.90
21459;DHT22;10891;49.350;19.386;2023-03-30T10:01:20;9.50;99.90
21459;DHT22;10891;49.350;19.386;2023-03-30T10:04:07;9.30;99.90
21459;DHT22;10891;49.350;19.386;2023-03-30T10:06:37;9.20;99.90
21459;DHT22;10891;49.350;19.386;2023-03-30T10:09:08;9.10;99.90
21459;DHT22;10891;49.350;19.386;2023-03-30T10:11:39;8.90;99.90
21459;DHT22;10891;49.350;19.386;2023-03-30T10:14:25;9.40;99.90
21459;DHT22;10891;49.350;19.386;2023-03-30T10:16:54;9.60;99.90
21459;DHT22;10891;49.350;19.386;2023-03-30T10:19:22;9.50;99.90
21459;DHT22;10891;49.350;19.386;2023-03-30T10:21:52;9.20;99.90
21459;DHT22;10891;49.350;19.386;2023-03-30T10:24:21;9.20;99.90
21459;DHT22;10891;49.350;19.386;2023-03-30T10:26:51;9.10;99.90
21459;DHT22;10891;49.350;19.386;2023-03-30T10:29:21;9.20;99.90
21459;DHT22;10891;49.350;19.386;2023-03-30T10:31:52;9.20;99.90
21459;DHT22;10891;49.350;19.386;2023-03-30T10:34:35;9.10;99.90
21459;DHT22;10891;49.350;19.386;2023-03-30T10:37:08;9.50;99.90
21459;DHT22;10891;49.350;19.386;2023-03-30T10:39:39;9.70;99.90
21459;DHT22;10891;49.350;19.386;2023-03-30T10:42:09;9.70;99.90
21459;DHT22;10891;49.350;19.386;2023-03-30T10:44:44;9.70;99.90
21459;DHT22;10891;49.350;19.386;2023-03-30T10:50:26;10.30;99.90
21459;DHT22;10891;49.350;19.386;2023-03-30T10:53:05;10.70;99.90
21459;DHT22;10891;49.350;19.386;2023-03-30T10:55:40;10.90;99.90
21459;DHT22;10891;49.350;19.386;2023-03-30T10:58:18;10.80;99.90
21459;DHT22;10891;49.350;19.386;2023-03-30T11:00:58;10.50;99.90
21459;DHT22;10891;49.350;19.386;2023-03-30T11:03:27;10.00;99.90
21459;DHT22;10891;49.350;19.386;2023-03-30T11:06:00;10.10;99.90
21459;DHT22;10891;49.350;19.386;2023-03-30T11:08:29;10.10;99.90
21459;DHT22;10891;49.350;19.386;2023-03-30T11:10:59;10.20;99.90
21459;DHT22;10891;49.350;19.386;2023-03-30T11:13:30;10.50;99.90
21459;DHT22;10891;49.350;19.386;2023-03-30T11:16:03;10.90;99.90
21459;DHT22;10891;49.350;19.386;2023-03-30T11:18:36;11.30;99.90
21459;DHT22;10891;49.350;19.386;2023-03-30T11:21:09;11.30;99.90
21459;DHT22;10891;49.350;19.386;2023-03-30T11:23:42;11.60;99.90
21459;DHT22;10891;49.350;19.386;2023-03-30T11:26:14;11.70;99.90
21459;DHT22;10891;49.350;19.386;2023-03-30T11:28:50;11.90;99.90
21459;DHT22;10891;49.350;19.386;2023-03-30T11:31:31;11.80;99.90
21459;DHT22;10891;49.350;19.386;2023-03-30T11:34:09;11.60;99.90
21459;DHT22;10891;49.350;19.386;2023-03-30T11:36:44;11.40;99.90
21459;DHT22;10891;49.350;19.386;2023-03-30T11:39:15;10.90;99.90
21459;DHT22;10891;49.350;19.386;2023-03-30T11:41:49;10.60;99.90
21459;DHT22;10891;49.350;19.386;2023-03-30T11:44:18;10.60;99.90
21459;DHT22;10891;49.350;19.386;2023-03-30T11:46:50;10.90;99.90
21459;DHT22;10891;49.350;19.386;2023-03-30T11:49:36;10.90;99.90
21459;DHT22;10891;49.350;19.386;2023-03-30T11:52:14;11.10;99.90
21459;DHT22;10891;49.350;19.386;2023-03-30T11:55:07;11.30;99.90
21459;DHT22;10891;49.350;19.386;2023-03-30T11:57:39;11.40;99.90
21459;DHT22;10891;49.350;19.386;2023-03-30T12:00:29;11.90;99.90
21459;DHT22;10891;49.350;19.386;2023-03-30T12:03:10;12.20;99.90
21459;DHT22;10891;49.350;19.386;2023-03-30T12:05:41;12.50;99.90
21459;DHT22;10891;49.350;19.386;2023-03-30T12:08:20;12.50;99.90
21459;DHT22;10891;49.350;19.386;2023-03-30T12:10:52;12.90;99.90
21459;DHT22;10891;49.350;19.386;2023-03-30T12:13:20;12.80;99.90
21459;DHT22;10891;49.350;19.386;2023-03-30T12:15:49;12.50;99.90
21459;DHT22;10891;49.350;19.386;2023-03-30T12:18:29;12.30;99.90
21459;DHT22;10891;49.350;19.386;2023-03-30T12:21:09;12.40;99.90
21459;DHT22;10891;49.350;19.386;2023-03-30T12:23:42;11.90;99.90
21459;DHT22;10891;49.350;19.386;2023-03-30T12:26:23;11.60;99.90
21459;DHT22;10891;49.350;19.386;2023-03-30T12:28:57;11.50;99.90
21459;DHT22;10891;49.350;19.386;2023-03-30T12:34:31;10.70;99.90
21459;DHT22;10891;49.350;19.386;2023-03-30T12:37:02;10.60;99.90
21459;DHT22;10891;49.350;19.386;2023-03-30T12:39:31;10.70;99.90
21459;DHT22;10891;49.350;19.386;2023-03-30T12:42:03;10.80;99.90
21459;DHT22;10891;49.350;19.386;2023-03-30T12:44:46;10.70;99.90
21459;DHT22;10891;49.350;19.386;2023-03-30T12:50:30;11.00;99.90
21459;DHT22;10891;49.350;19.386;2023-03-30T12:55:50;10.60;99.90
21459;DHT22;10891;49.350;19.386;2023-03-30T12:58:43;10.70;99.90
21459;DHT22;10891;49.350;19.386;2023-03-30T13:01:20;10.60;99.90
21459;DHT22;10891;49.350;19.386;2023-03-30T13:03:52;10.60;99.90
21459;DHT22;10891;49.350;19.386;2023-03-30T13:06:25;10.90;99.90
21459;DHT22;10891;49.350;19.386;2023-03-30T13:08:55;10.80;99.90
21459;DHT22;10891;49.350;19.386;2023-03-30T13:11:23;10.80;99.90
21459;DHT22;10891;49.350;19.386;2023-03-30T13:13:53;11.10;99.90
21459;DHT22;10891;49.350;19.386;2023-03-30T13:16:46;11.30;99.90
21459;DHT22;10891;49.350;19.386;2023-03-30T13:19:20;11.40;99.90
21459;DHT22;10891;49.350;19.386;2023-03-30T13:21:55;11.40;99.90
21459;DHT22;10891;49.350;19.386;2023-03-30T13:24:27;11.20;99.90
21459;DHT22;10891;49.350;19.386;2023-03-30T13:27:19;11.30;99.90
21459;DHT22;10891;49.350;19.386;2023-03-30T13:29:54;11.10;99.90
21459;DHT22;10891;49.350;19.386;2023-03-30T13:32:33;11.30;99.90
21459;DHT22;10891;49.350;19.386;2023-03-30T13:35:26;11.30;99.90
21459;DHT22;10891;49.350;19.386;2023-03-30T13:38:11;11.20;99.90
21459;DHT22;10891;49.350;19.386;2023-03-30T13:40:49;11.10;99.90
21459;DHT22;10891;49.350;19.386;2023-03-30T13:43:26;11.00;99.90
21459;DHT22;10891;49.350;19.386;2023-03-30T13:45:58;10.90;99.90
21459;DHT22;10891;49.350;19.386;2023-03-30T13:48:40;10.70;99.90
21459;DHT22;10891;49.350;19.386;2023-03-30T13:51:12;10.60;99.90
21459;DHT22;10891;49.350;19.386;2023-03-30T13:53:45;10.20;99.90
21459;DHT22;10891;49.350;19.386;2023-03-30T13:56:14;10.00;99.90
21459;DHT22;10891;49.350;19.386;2023-03-30T13:58:44;9.80;99.90
21459;DHT22;10891;49.350;19.386;2023-03-30T14:01:18;9.50;99.90
21459;DHT22;10891;49.350;19.386;2023-03-30T14:03:47;9.40;99.90
21459;DHT22;10891;49.350;19.386;2023-03-30T14:06:17;9.30;99.90
21459;DHT22;10891;49.350;19.386;2023-03-30T14:08:48;9.20;99.90
21459;DHT22;10891;49.350;19.386;2023-03-30T14:11:17;9.00;99.90
21459;DHT22;10891;49.350;19.386;2023-03-30T14:13:47;9.00;99.90
21459;DHT22;10891;49.350;19.386;2023-03-30T14:16:19;9.00;99.90
21459;DHT22;10891;49.350;19.386;2023-03-30T14:18:47;9.00;99.90
21459;DHT22;10891;49.350;19.386;2023-03-30T14:21:16;9.00;99.90
21459;DHT22;10891;49.350;19.386;2023-03-30T14:23:48;9.00;99.90
21459;DHT22;10891;49.350;19.386;2023-03-30T14:26:21;9.20;99.90
21459;DHT22;10891;49.350;19.386;2023-03-30T14:28:53;9.20;99.90
21459;DHT22;10891;49.350;19.386;2023-03-30T14:31:20;9.10;99.90
21459;DHT22;10891;49.350;19.386;2023-03-30T14:33:47;9.10;99.90
21459;DHT22;10891;49.350;19.386;2023-03-30T14:36:16;9.00;99.90
21459;DHT22;10891;49.350;19.386;2023-03-30T14:38:46;8.90;99.90
21459;DHT22;10891;49.350;19.386;2023-03-30T14:41:19;8.70;99.90
21459;DHT22;10891;49.350;19.386;2023-03-30T14:43:51;8.70;99.90
21459;DHT22;10891;49.350;19.386;2023-03-30T14:46:22;8.60;99.90
21459;DHT22;10891;49.350;19.386;2023-03-30T14:48:50;8.50;99.90
21459;DHT22;10891;49.350;19.386;2023-03-30T14:51:21;8.50;99.90
21459;DHT22;10891;49.350;19.386;2023-03-30T14:53:49;8.40;99.90
21459;DHT22;10891;49.350;19.386;2023-03-30T14:56:19;8.50;99.90
21459;DHT22;10891;49.350;19.386;2023-03-30T14:58:48;8.50;99.90
21459;DHT22;10891;49.350;19.386;2023-03-30T15:01:19;8.40;99.90
21459;DHT22;10891;49.350;19.386;2023-03-30T15:03:48;8.40;99.90
21459;DHT22;10891;49.350;19.386;2023-03-30T15:06:21;8.40;99.90
21459;DHT22;10891;49.350;19.386;2023-03-30T15:08:50;8.30;99.90
21459;DHT22;10891;49.350;19.386;2023-03-30T15:11:21;8.30;99.90
21459;DHT22;10891;49.350;19.386;2023-03-30T15:13:50;8.20;99.90
21459;DHT22;10891;49.350;19.386;2023-03-30T15:16:20;8.10;99.90
21459;DHT22;10891;49.350;19.386;2023-03-30T15:18:49;8.10;99.90
21459;DHT22;10891;49.350;19.386;2023-03-30T15:21:17;7.90;99.90
21459;DHT22;10891;49.350;19.386;2023-03-30T15:23:46;7.80;99.90
21459;DHT22;10891;49.350;19.386;2023-03-30T15:26:14;7.70;99.90
21459;DHT22;10891;49.350;19.386;2023-03-30T15:28:46;7.60;99.90
21459;DHT22;10891;49.350;19.386;2023-03-30T15:31:15;7.50;99.90
21459;DHT22;10891;49.350;19.386;2023-03-30T15:33:44;7.40;99.90
21459;DHT22;10891;49.350;19.386;2023-03-30T15:36:16;7.30;99.90
21459;DHT22;10891;49.350;19.386;2023-03-30T15:38:46;7.20;99.90
21459;DHT22;10891;49.350;19.386;2023-03-30T15:41:15;7.00;99.90
21459;DHT22;10891;49.350;19.386;2023-03-30T15:43:56;7.00;99.90
21459;DHT22;10891;49.350;19.386;2023-03-30T15:46:24;6.90;99.90
21459;DHT22;10891;49.350;19.386;2023-03-30T15:48:57;6.90;99.90
21459;DHT22;10891;49.350;19.386;2023-03-30T15:51:27;6.90;99.90
21459;DHT22;10891;49.350;19.386;2023-03-30T15:53:59;6.80;99.90
21459;DHT22;10891;49.350;19.386;2023-03-30T15:56:32;6.70;99.90
21459;DHT22;10891;49.350;19.386;2023-03-30T15:59:02;6.70;99.90
21459;DHT22;10891;49.350;19.386;2023-03-30T16:01:41;6.70;99.90
21459;DHT22;10891;49.350;19.386;2023-03-30T16:04:13;6.60;99.90
21459;DHT22;10891;49.350;19.386;2023-03-30T16:06:41;6.60;99.90
21459;DHT22;10891;49.350;19.386;2023-03-30T16:09:08;6.50;99.90
21459;DHT22;10891;49.350;19.386;2023-03-30T16:11:36;6.50;99.90
21459;DHT22;10891;49.350;19.386;2023-03-30T16:14:08;6.50;99.90